Loyal, Wisconsin
Current Conditions -  °F | °C
As of 11:54 PM on Friday 28 Nov 2014 (Local Time) from KMFI Reporting Station
Haze Haze  
Wind Chill: 14°   Ceiling: 700
Heat Index: 22°   Visibility: 6mi
Dew Point: 18°   Wind: 6mph
Humidity: 85%   Direction: 120°ESE
Pressure: 29.76"   Gusts: NA
Location:  44.74°N, 90.5°W
Report Text: KMFI 290554Z AUTO 12005KT 6SM BR OVC007 M06/M08 A2976 RMK AO2 SLP099 60000 T10561078 11056 21061 410561156 58023
Loading
Personal Weather Stations






























Interactive Weather Map New forecast layout! Learn more

10-Day Weather Forecast

Advertisements
Track Severe Weather on mobile